Time;durP1;ratioP1;P1;durP2;ratioP2;P2;SDS_P1;SDS_P2;PMS_P1;PMS_P2;Temp;Humidity;BMP_temperature;BMP_pressure;BME280_temperature;BME280_humidity;BME280_pressure;Samples;Min_cycle;Max_cycle;Signal;HPM_P1;HPM_P2
2023/02/20 00:00:28;;;;;;;4.35;3.05;;;6.00;95.00;;;;;;4956697;28;20029;-69
2023/02/20 00:02:54;;;;;;;6.05;2.90;;;6.00;95.10;;;;;;4959784;28;20130;-69
2023/02/20 00:05:19;;;;;;;9.85;4.90;;;6.00;95.10;;;;;;4951727;28;20117;-69
2023/02/20 00:07:45;;;;;;;6.25;3.30;;;6.00;95.20;;;;;;4954572;28;20031;-69
2023/02/20 00:10:12;;;;;;;6.13;3.67;;;6.00;95.20;;;;;;4971146;28;20117;-69
2023/02/20 00:12:38;;;;;;;5.72;3.28;;;6.00;95.20;;;;;;4955288;28;20482;-69
2023/02/20 00:15:04;;;;;;;7.72;3.85;;;6.00;95.20;;;;;;4960192;28;20118;-69
2023/02/20 00:17:30;;;;;;;5.95;3.35;;;6.00;95.20;;;;;;4955211;28;20053;-69
2023/02/20 00:19:56;;;;;;;5.35;2.92;;;6.00;95.30;;;;;;4955641;28;20027;-69
2023/02/20 00:22:22;;;;;;;5.95;3.03;;;5.90;95.30;;;;;;4946400;28;20117;-69
2023/02/20 00:24:48;;;;;;;7.13;3.60;;;5.90;95.30;;;;;;4958416;28;20046;-69
2023/02/20 00:27:14;;;;;;;5.30;3.20;;;6.00;95.40;;;;;;4955605;28;20038;-69
2023/02/20 00:29:40;;;;;;;7.32;3.88;;;5.90;95.40;;;;;;4962665;28;20023;-69
2023/02/20 00:32:05;;;;;;;8.82;3.83;;;5.90;95.50;;;;;;4974048;28;20105;-69
2023/02/20 00:34:31;;;;;;;8.00;3.83;;;5.90;95.60;;;;;;4973414;28;20027;-69
2023/02/20 00:36:57;;;;;;;5.93;3.40;;;5.90;95.60;;;;;;4973422;28;20043;-69
2023/02/20 00:39:23;;;;;;;4.85;3.10;;;5.80;95.60;;;;;;4972877;28;20030;-69
2023/02/20 00:41:48;;;;;;;7.00;3.75;;;5.80;95.60;;;;;;4973246;28;20026;-69
2023/02/20 00:44:15;;;;;;;6.32;3.97;;;5.70;95.70;;;;;;4961842;28;20028;-70
2023/02/20 00:46:40;;;;;;;6.03;3.45;;;5.70;95.80;;;;;;4958400;28;20019;-70
2023/02/20 00:49:06;;;;;;;5.70;3.35;;;5.80;95.80;;;;;;4956291;28;20037;-69
2023/02/20 00:51:33;;;;;;;6.55;3.80;;;5.70;95.80;;;;;;4973544;28;20501;-69
2023/02/20 00:53:59;;;;;;;8.77;4.03;;;5.70;95.80;;;;;;4973216;28;20058;-69
2023/02/20 00:56:24;;;;;;;8.07;3.90;;;5.70;95.90;;;;;;4955865;28;20027;-69
2023/02/20 00:58:50;;;;;;;6.60;3.50;;;5.60;95.90;;;;;;4972911;28;20363;-69
2023/02/20 01:01:16;;;;;;;6.75;3.92;;;5.60;95.90;;;;;;4956419;28;20154;-69
2023/02/20 01:03:42;;;;;;;7.45;3.55;;;5.60;96.00;;;;;;4967470;28;20177;-69
2023/02/20 01:06:08;;;;;;;7.28;3.50;;;5.60;96.00;;;;;;4973572;28;20031;-70
2023/02/20 01:08:33;;;;;;;7.85;4.20;;;5.60;96.00;;;;;;4973131;28;20039;-70
2023/02/20 01:10:59;;;;;;;7.20;3.97;;;5.60;96.10;;;;;;4973155;28;20037;-70
2023/02/20 01:13:25;;;;;;;10.00;3.97;;;5.60;96.10;;;;;;4971432;28;20081;-70
2023/02/20 01:15:50;;;;;;;6.90;4.40;;;5.60;96.10;;;;;;4973158;28;20030;-69
2023/02/20 01:18:16;;;;;;;4.57;3.28;;;5.60;96.20;;;;;;4957506;28;20569;-70
2023/02/20 01:20:42;;;;;;;7.45;3.83;;;5.60;96.20;;;;;;4954080;29;20383;-70
2023/02/20 01:23:08;;;;;;;8.32;3.90;;;5.60;96.30;;;;;;4957165;28;20490;-69
2023/02/20 01:25:34;;;;;;;7.97;3.95;;;5.60;96.30;;;;;;4954287;28;20078;-69
2023/02/20 01:27:59;;;;;;;8.02;4.80;;;5.60;96.30;;;;;;4965673;28;20023;-69
2023/02/20 01:30:25;;;;;;;4.78;3.55;;;5.60;96.30;;;;;;4955894;28;20086;-70
2023/02/20 01:32:50;;;;;;;7.32;3.72;;;5.60;96.40;;;;;;4960327;28;20054;-69
2023/02/20 01:35:16;;;;;;;6.45;3.88;;;5.70;96.40;;;;;;4959382;28;20027;-69
2023/02/20 01:37:42;;;;;;;5.00;3.55;;;5.70;96.40;;;;;;4953549;28;20042;-69
2023/02/20 01:40:28;;;;;;;8.02;4.25;;;5.70;96.50;;;;;;4955713;28;20089;-69
2023/02/20 01:42:54;;;;;;;6.55;3.75;;;5.60;96.50;;;;;;4970164;28;20430;-68
2023/02/20 01:45:22;;;;;;;6.72;3.97;;;5.60;96.50;;;;;;4953872;28;20039;-68
2023/02/20 01:47:54;;;;;;;6.85;3.42;;;5.70;96.60;;;;;;4964729;28;20019;-68
2023/02/20 01:50:25;;;;;;;6.03;3.67;;;5.70;96.60;;;;;;4962635;28;20050;-68
2023/02/20 01:52:54;;;;;;;7.85;4.07;;;5.70;96.60;;;;;;4954536;28;20051;-69
2023/02/20 01:55:21;;;;;;;6.97;4.10;;;5.70;96.70;;;;;;4959655;28;20072;-68
2023/02/20 01:57:56;;;;;;;5.88;3.65;;;5.70;96.90;;;;;;4972678;28;20042;-68
2023/02/20 02:00:25;;;;;;;4.97;3.30;;;5.70;96.70;;;;;;4961491;28;20027;-68
2023/02/20 02:03:03;;;;;;;6.70;3.70;;;5.80;96.90;;;;;;4954473;28;20035;-68
2023/02/20 02:05:31;;;;;;;5.95;3.60;;;5.80;96.80;;;;;;4952673;28;20055;-68
2023/02/20 02:07:59;;;;;;;6.85;3.50;;;5.80;96.70;;;;;;4953529;29;20031;-68
2023/02/20 02:10:30;;;;;;;6.35;4.07;;;5.90;96.80;;;;;;4960458;28;20038;-68
2023/02/20 02:12:56;;;;;;;7.78;4.20;;;5.90;96.70;;;;;;4953863;28;20031;-69
2023/02/20 02:15:23;;;;;;;9.63;3.70;;;5.90;96.70;;;;;;4953701;28;20572;-69
2023/02/20 02:18:04;;;;;;;5.53;4.03;;;5.90;96.90;;;;;;4953172;28;20042;-69
2023/02/20 02:21:01;;;;;;;5.93;3.60;;;6.00;96.80;;;;;;4959319;28;20626;-69
2023/02/20 02:24:04;;;;;;;8.73;4.72;;;6.00;96.80;;;;;;4929440;28;20031;-69
2023/02/20 02:26:53;;;;;;;6.05;3.95;;;6.00;96.80;;;;;;4953469;28;20035;-69
2023/02/20 02:29:46;;;;;;;5.95;3.70;;;6.00;96.80;;;;;;4962376;28;20443;-69
2023/02/20 02:32:28;;;;;;;5.72;3.38;;;6.00;96.80;;;;;;4967849;28;20502;-70
2023/02/20 02:34:54;;;;;;;6.68;3.70;;;6.10;96.80;;;;;;4950851;28;20493;-70
2023/02/20 02:37:31;;;;;;;6.85;3.95;;;6.10;96.90;;;;;;4957922;28;20047;-70
2023/02/20 02:40:16;;;;;;;6.20;3.80;;;6.00;96.90;;;;;;4953539;28;20070;-70
2023/02/20 02:43:05;;;;;;;7.20;4.20;;;6.00;97.00;;;;;;4964804;28;20087;-70
2023/02/20 02:45:44;;;;;;;6.30;3.40;;;6.10;97.00;;;;;;4956533;28;20400;-70
2023/02/20 02:48:31;;;;;;;5.78;4.40;;;6.10;97.00;;;;;;4969038;28;20089;-70
2023/02/20 02:51:09;;;;;;;7.15;3.55;;;6.10;97.10;;;;;;4975165;28;20494;-69
2023/02/20 02:53:35;;;;;;;5.88;3.42;;;6.20;97.00;;;;;;4963188;28;20043;-69
2023/02/20 02:56:20;;;;;;;6.53;3.28;;;6.20;97.10;;;;;;4951988;28;20081;-70
2023/02/20 02:58:47;;;;;;;7.07;4.25;;;6.20;97.10;;;;;;4955681;28;20038;-69
2023/02/20 03:01:15;;;;;;;8.85;3.83;;;6.20;97.10;;;;;;4975189;28;20034;-69
2023/02/20 03:03:43;;;;;;;8.65;4.60;;;6.30;97.20;;;;;;4956977;28;20034;-69
2023/02/20 03:06:29;;;;;;;8.35;3.97;;;6.30;97.20;;;;;;4966830;28;20494;-69
2023/02/20 03:09:01;;;;;;;5.72;3.95;;;6.40;97.20;;;;;;4956903;28;20041;-69
2023/02/20 03:11:30;;;;;;;11.48;4.82;;;6.40;97.20;;;;;;4973023;28;20023;-69
2023/02/20 03:16:53;;;;;;;9.98;4.63;;;6.50;97.30;;;;;;4974566;28;20113;-70
2023/02/20 03:19:28;;;;;;;6.10;4.05;;;6.60;97.30;;;;;;4959433;28;20062;-69
2023/02/20 03:21:55;;;;;;;6.18;4.18;;;6.60;97.30;;;;;;4975436;28;20381;-70
2023/02/20 03:24:24;;;;;;;5.60;4.05;;;6.60;97.30;;;;;;4959643;28;20126;-70
2023/02/20 03:26:54;;;;;;;6.85;4.10;;;6.60;97.30;;;;;;4969750;28;20471;-71
2023/02/20 03:29:29;;;;;;;7.25;4.45;;;6.60;97.40;;;;;;4955811;28;20486;-70
2023/02/20 03:43:23;;;;;;;8.02;4.43;;;6.80;97.50;;;;;;4964285;28;20031;-70
2023/02/20 03:45:51;;;;;;;10.40;4.80;;;6.80;97.50;;;;;;4956351;28;20090;-69
2023/02/20 03:48:22;;;;;;;7.00;4.60;;;6.80;97.60;;;;;;4967473;28;20474;-70
2023/02/20 03:53:32;;;;;;;7.07;4.50;;;6.90;97.60;;;;;;4961697;28;20038;-70
2023/02/20 03:56:03;;;;;;;6.55;4.88;;;6.90;97.60;;;;;;4971191;28;20281;-70
2023/02/20 03:58:33;;;;;;;7.18;4.63;;;7.00;97.70;;;;;;4955707;28;20039;-71
2023/02/20 04:01:02;;;;;;;8.43;5.07;;;7.10;97.70;;;;;;4963535;28;20093;-70
2023/02/20 04:03:32;;;;;;;8.65;4.75;;;7.00;97.70;;;;;;4941232;28;20387;-70
2023/02/20 04:05:59;;;;;;;7.35;4.82;;;7.10;97.80;;;;;;4957674;28;20094;-71
2023/02/20 04:08:50;;;;;;;8.57;4.93;;;7.10;97.80;;;;;;4954868;28;20350;-71
2023/02/20 04:11:44;;;;;;;7.10;4.80;;;7.10;97.80;;;;;;4953326;28;20106;-69
2023/02/20 04:14:13;;;;;;;6.95;4.20;;;7.20;97.80;;;;;;4960275;28;20037;-69
2023/02/20 04:16:44;;;;;;;7.13;4.50;;;7.20;97.90;;;;;;4968598;28;20506;-69
2023/02/20 04:19:10;;;;;;;7.78;5.28;;;7.20;97.90;;;;;;4947656;28;20406;-70
2023/02/20 04:21:44;;;;;;;6.65;4.57;;;7.30;98.00;;;;;;4960936;28;20518;-69
2023/02/20 04:24:18;;;;;;;8.75;5.20;;;7.30;98.10;;;;;;4956519;28;20581;-69
2023/02/20 04:26:44;;;;;;;7.37;4.67;;;7.30;98.10;;;;;;4955153;28;20114;-69
2023/02/20 04:29:09;;;;;;;8.32;5.38;;;7.40;98.00;;;;;;4962777;28;20146;-69
2023/02/20 04:31:35;;;;;;;9.80;4.90;;;7.40;98.00;;;;;;4955597;28;20117;-69
2023/02/20 04:34:01;;;;;;;8.32;5.32;;;7.40;98.00;;;;;;4955880;28;20382;-69
2023/02/20 04:36:27;;;;;;;6.57;4.85;;;7.40;98.10;;;;;;4954569;28;20045;-69
2023/02/20 04:38:52;;;;;;;6.97;4.95;;;7.50;98.10;;;;;;4957706;28;20382;-68
2023/02/20 04:41:18;;;;;;;7.82;5.55;;;7.50;98.10;;;;;;4954353;28;20561;-69
2023/02/20 04:43:43;;;;;;;8.85;5.45;;;7.50;98.10;;;;;;4957668;28;20084;-70
2023/02/20 04:46:09;;;;;;;7.10;5.40;;;7.50;98.10;;;;;;4937185;28;20035;-70
2023/02/20 04:48:35;;;;;;;7.25;4.93;;;7.50;98.10;;;;;;4960116;28;20030;-71
2023/02/20 04:51:01;;;;;;;9.82;5.25;;;7.50;98.20;;;;;;4954470;28;20042;-70
2023/02/20 04:53:26;;;;;;;9.18;4.93;;;7.60;98.20;;;;;;4960989;28;20414;-69
2023/02/20 04:55:52;;;;;;;8.10;4.82;;;7.50;98.20;;;;;;4950801;28;20121;-69
2023/02/20 04:58:18;;;;;;;10.20;5.35;;;7.60;98.30;;;;;;4954218;28;20039;-69
2023/02/20 05:00:43;;;;;;;7.60;5.05;;;7.60;98.30;;;;;;4943026;28;20031;-69
2023/02/20 05:03:09;;;;;;;6.45;4.60;;;7.60;98.30;;;;;;4961450;28;20043;-69
2023/02/20 05:05:34;;;;;;;8.10;5.15;;;7.60;98.30;;;;;;4953971;28;20066;-68
2023/02/20 05:08:03;;;;;;;7.60;5.38;;;7.70;98.30;;;;;;4956287;28;20075;-68
2023/02/20 05:10:30;;;;;;;7.78;4.82;;;7.60;98.30;;;;;;4947908;28;20303;-69
2023/02/20 05:12:56;;;;;;;7.43;5.00;;;7.70;98.30;;;;;;4966853;28;20034;-69
2023/02/20 05:15:23;;;;;;;8.38;5.47;;;7.70;98.40;;;;;;4967637;28;20038;-70
2023/02/20 05:17:49;;;;;;;7.85;5.57;;;7.70;98.40;;;;;;4961390;28;20394;-68
2023/02/20 05:20:16;;;;;;;7.68;5.35;;;7.70;98.60;;;;;;4953329;28;20028;-69
2023/02/20 05:22:41;;;;;;;8.25;4.72;;;7.80;98.40;;;;;;4967157;28;20474;-68
2023/02/20 05:25:08;;;;;;;9.23;5.50;;;7.80;98.40;;;;;;4956138;28;20038;-69
2023/02/20 05:27:33;;;;;;;7.00;5.20;;;7.80;98.50;;;;;;4954523;28;20042;-69
2023/02/20 05:30:00;;;;;;;7.57;5.53;;;7.80;98.50;;;;;;4962201;28;20435;-69
2023/02/20 05:32:28;;;;;;;8.23;5.30;;;7.90;98.60;;;;;;4963876;28;20042;-69
2023/02/20 05:34:54;;;;;;;8.63;5.72;;;7.80;98.60;;;;;;4958248;28;20472;-69
2023/02/20 05:37:22;;;;;;;8.15;5.65;;;7.90;98.70;;;;;;4958011;28;20044;-69
2023/02/20 05:39:48;;;;;;;6.50;5.05;;;7.90;98.80;;;;;;4960150;28;20038;-69
2023/02/20 05:42:14;;;;;;;7.43;5.10;;;7.90;98.80;;;;;;4953852;28;20031;-68
2023/02/20 05:44:40;;;;;;;8.00;5.70;;;7.90;98.80;;;;;;4964916;28;20038;-74
2023/02/20 05:47:06;;;;;;;8.98;6.75;;;7.90;98.80;;;;;;4972493;28;20026;-72
2023/02/20 05:49:33;;;;;;;9.93;6.10;;;7.90;98.90;;;;;;4970604;28;20046;-72
2023/02/20 05:52:00;;;;;;;7.43;5.03;;;7.90;98.90;;;;;;4972162;28;20023;-69
2023/02/20 05:54:25;;;;;;;8.65;6.00;;;8.00;99.00;;;;;;4957552;28;20121;-69
2023/02/20 05:56:51;;;;;;;9.70;5.18;;;8.00;99.00;;;;;;4970402;28;20455;-70
2023/02/20 05:59:20;;;;;;;8.38;5.22;;;8.00;99.10;;;;;;4967465;28;20474;-70
2023/02/20 06:01:46;;;;;;;7.47;5.32;;;8.00;99.10;;;;;;4955124;28;20066;-69
2023/02/20 06:04:11;;;;;;;9.73;5.18;;;8.00;99.20;;;;;;4970001;28;20058;-69
2023/02/20 06:06:39;;;;;;;7.63;5.70;;;8.00;99.20;;;;;;4954998;28;20086;-69
2023/02/20 06:09:07;;;;;;;8.25;5.30;;;8.10;99.30;;;;;;4966832;28;20034;-68
2023/02/20 06:11:33;;;;;;;8.93;6.30;;;8.00;99.30;;;;;;4957293;28;20058;-69
2023/02/20 06:14:00;;;;;;;6.63;5.00;;;8.10;99.40;;;;;;4960516;28;20061;-70
2023/02/20 06:16:28;;;;;;;7.85;5.75;;;8.10;99.40;;;;;;4965810;28;20455;-69
2023/02/20 06:18:55;;;;;;;6.32;4.90;;;8.10;99.40;;;;;;4964450;28;20031;-69
2023/02/20 06:21:22;;;;;;;6.65;5.03;;;8.10;99.40;;;;;;4956530;28;20031;-70
2023/02/20 06:23:48;;;;;;;7.28;4.65;;;8.10;99.40;;;;;;4957032;28;20465;-70
2023/02/20 06:26:15;;;;;;;9.35;6.10;;;8.20;99.40;;;;;;4970799;28;20037;-70
2023/02/20 06:28:41;;;;;;;7.18;5.40;;;8.20;99.50;;;;;;4956718;28;20130;-70
2023/02/20 06:31:07;;;;;;;6.88;5.10;;;8.20;99.50;;;;;;4957254;28;20035;-71
2023/02/20 06:33:34;;;;;;;8.30;6.20;;;8.20;99.50;;;;;;4958387;28;20423;-71
2023/02/20 06:35:59;;;;;;;8.48;5.72;;;8.20;99.50;;;;;;4956993;28;20035;-70
2023/02/20 06:38:25;;;;;;;7.13;5.68;;;8.20;99.50;;;;;;4955943;28;20495;-70
2023/02/20 06:40:51;;;;;;;8.10;5.90;;;8.20;99.50;;;;;;4958666;28;20070;-70
2023/02/20 06:43:17;;;;;;;9.38;5.70;;;8.20;99.60;;;;;;4956603;28;20035;-69
2023/02/20 06:45:43;;;;;;;8.50;6.07;;;8.30;99.60;;;;;;4957629;28;20070;-70
2023/02/20 06:48:10;;;;;;;9.60;6.70;;;8.20;99.60;;;;;;4972013;28;20018;-69
2023/02/20 06:50:35;;;;;;;9.50;7.00;;;8.20;99.60;;;;;;4961556;28;20038;-70
2023/02/20 06:53:01;;;;;;;8.93;7.25;;;8.20;99.80;;;;;;4955653;28;20051;-70
2023/02/20 06:55:27;;;;;;;10.95;7.38;;;8.30;99.70;;;;;;4959417;28;20118;-71
2023/02/20 06:57:52;;;;;;;10.10;7.45;;;8.30;99.80;;;;;;4955975;28;20034;-69
2023/02/20 07:00:18;;;;;;;9.52;7.13;;;8.30;99.80;;;;;;4948678;28;20030;-70
2023/02/20 07:02:44;;;;;;;11.63;8.07;;;8.40;99.80;;;;;;4956294;28;20027;-70
2023/02/20 07:05:11;;;;;;;9.70;7.32;;;8.40;99.80;;;;;;4957041;28;20043;-70
2023/02/20 07:07:37;;;;;;;10.65;7.97;;;8.40;99.80;;;;;;4955857;28;20035;-69
2023/02/20 07:10:04;;;;;;;9.60;7.00;;;8.40;99.80;;;;;;4956404;28;20026;-71
2023/02/20 07:12:31;;;;;;;12.07;8.00;;;8.40;99.80;;;;;;4951738;28;20390;-72
2023/02/20 07:14:58;;;;;;;9.60;7.15;;;8.40;99.70;;;;;;4955699;28;20106;-72
2023/02/20 07:17:24;;;;;;;10.32;7.60;;;8.50;99.70;;;;;;4956155;28;20034;-71
2023/02/20 07:19:50;;;;;;;11.27;8.18;;;8.40;99.70;;;;;;4955334;28;20034;-71
2023/02/20 07:22:16;;;;;;;11.13;7.68;;;8.50;99.70;;;;;;4955653;28;20027;-71
2023/02/20 07:24:42;;;;;;;10.90;7.97;;;8.50;99.60;;;;;;4956017;28;20025;-71
2023/02/20 07:27:09;;;;;;;10.43;7.78;;;8.50;99.60;;;;;;4972424;28;20470;-71
2023/02/20 07:29:36;;;;;;;9.52;7.25;;;8.50;99.60;;;;;;4971286;28;20038;-71
2023/02/20 07:32:01;;;;;;;10.77;7.40;;;8.50;99.60;;;;;;4965198;28;20023;-72
2023/02/20 07:34:27;;;;;;;15.68;8.18;;;8.60;99.50;;;;;;4954957;28;20408;-72
2023/02/20 07:36:53;;;;;;;10.68;8.18;;;8.60;99.50;;;;;;4959306;28;20035;-70
2023/02/20 07:39:18;;;;;;;9.20;7.75;;;8.60;99.50;;;;;;4968731;28;20034;-69
2023/02/20 07:41:44;;;;;;;11.23;7.78;;;8.70;99.50;;;;;;4955640;28;20027;-70
2023/02/20 07:44:11;;;;;;;10.90;7.20;;;8.70;99.40;;;;;;4957493;28;20043;-69
2023/02/20 07:46:37;;;;;;;11.07;7.70;;;8.70;99.40;;;;;;4955989;28;20109;-71
2023/02/20 07:49:04;;;;;;;9.27;7.78;;;8.70;99.40;;;;;;4965822;28;20109;-70
2023/02/20 07:51:30;;;;;;;10.43;7.80;;;8.80;99.40;;;;;;4960705;28;20038;-69
2023/02/20 07:53:55;;;;;;;10.80;7.03;;;8.80;99.30;;;;;;4961704;28;20055;-69
2023/02/20 07:56:22;;;;;;;10.25;7.57;;;8.80;99.30;;;;;;4960438;28;20074;-70
2023/02/20 07:58:49;;;;;;;10.52;7.53;;;8.90;99.40;;;;;;4962465;28;20430;-70
2023/02/20 08:01:15;;;;;;;9.98;6.80;;;8.90;99.30;;;;;;4959232;28;20102;-68
2023/02/20 08:03:41;;;;;;;14.07;6.80;;;8.90;99.30;;;;;;4959980;28;20062;-69
2023/02/20 08:06:07;;;;;;;8.88;6.32;;;9.00;99.40;;;;;;4937933;28;20475;-69
2023/02/20 08:08:32;;;;;;;9.75;6.45;;;9.00;99.00;;;;;;4968896;28;20031;-69
2023/02/20 08:10:59;;;;;;;14.38;6.43;;;9.00;99.00;;;;;;4968746;28;20041;-69
2023/02/20 08:13:24;;;;;;;10.73;6.72;;;9.00;99.00;;;;;;4964917;28;20038;-69
2023/02/20 08:15:50;;;;;;;10.52;7.30;;;9.10;99.00;;;;;;4967523;28;20510;-70
2023/02/20 08:18:16;;;;;;;11.02;7.15;;;9.10;98.80;;;;;;4965005;28;20039;-70
2023/02/20 08:20:42;;;;;;;9.38;6.47;;;9.10;98.80;;;;;;4974366;28;20058;-73
2023/02/20 08:23:19;;;;;;;9.55;7.40;;;9.20;98.80;;;;;;4969231;28;20031;-70
2023/02/20 08:25:45;;;;;;;8.57;6.22;;;9.20;98.90;;;;;;4961849;28;20030;-69
2023/02/20 08:28:11;;;;;;;8.05;5.63;;;9.30;98.80;;;;;;4973184;28;20514;-69
2023/02/20 08:30:37;;;;;;;8.55;6.63;;;9.30;98.60;;;;;;4973688;28;20034;-69
2023/02/20 08:33:05;;;;;;;8.55;5.85;;;9.30;98.50;;;;;;4973140;28;20093;-69
2023/02/20 08:35:33;;;;;;;8.63;6.32;;;9.40;98.40;;;;;;4973812;28;20386;-70
2023/02/20 08:38:01;;;;;;;8.02;5.28;;;9.40;98.40;;;;;;4970821;28;20042;-71
2023/02/20 08:40:26;;;;;;;8.80;5.07;;;9.40;98.30;;;;;;4959196;28;20027;-70
2023/02/20 08:42:52;;;;;;;7.90;6.18;;;9.40;98.20;;;;;;4972809;28;20053;-71
2023/02/20 08:45:17;;;;;;;10.35;5.75;;;9.50;98.20;;;;;;4972843;28;20546;-72
2023/02/20 08:47:43;;;;;;;8.88;5.63;;;9.50;98.20;;;;;;4972816;28;20026;-70
2023/02/20 08:50:09;;;;;;;8.55;5.35;;;9.50;98.20;;;;;;4973169;28;20045;-68
2023/02/20 08:52:35;;;;;;;7.90;5.65;;;9.60;98.10;;;;;;4972337;28;20050;-72
2023/02/20 08:55:01;;;;;;;7.32;5.45;;;9.60;98.10;;;;;;4972653;28;20027;-70
2023/02/20 08:57:26;;;;;;;8.10;5.63;;;9.70;98.00;;;;;;4972460;28;20038;-69
2023/02/20 08:59:52;;;;;;;8.20;5.28;;;9.70;98.00;;;;;;4971919;28;20031;-69
2023/02/20 09:02:23;;;;;;;6.72;5.30;;;9.70;98.00;;;;;;4962769;28;20027;-69
2023/02/20 09:04:49;;;;;;;7.40;5.07;;;9.80;97.90;;;;;;4972098;28;20093;-71
2023/02/20 09:07:15;;;;;;;9.30;5.20;;;9.80;97.80;;;;;;4972578;28;20030;-68
2023/02/20 09:09:40;;;;;;;6.10;4.45;;;9.90;97.80;;;;;;4971888;28;20022;-70
2023/02/20 09:12:06;;;;;;;7.60;5.03;;;9.90;97.70;;;;;;4972428;28;20085;-71
2023/02/20 09:14:32;;;;;;;6.55;5.32;;;9.90;97.70;;;;;;4970579;28;20372;-70
2023/02/20 09:16:58;;;;;;;8.27;4.78;;;10.00;97.60;;;;;;4963780;28;20038;-70
2023/02/20 09:19:24;;;;;;;6.50;4.55;;;10.00;97.50;;;;;;4971028;28;20026;-70
2023/02/20 09:21:50;;;;;;;7.90;4.47;;;10.00;97.50;;;;;;4972386;28;20512;-70
2023/02/20 09:24:16;;;;;;;6.32;4.28;;;10.10;97.40;;;;;;4971679;28;20453;-71
2023/02/20 09:26:42;;;;;;;6.10;4.43;;;10.20;97.40;;;;;;4971831;28;20043;-70
2023/02/20 09:29:08;;;;;;;7.05;4.60;;;10.20;97.30;;;;;;4968453;28;20023;-70
2023/02/20 09:31:33;;;;;;;7.93;5.15;;;10.20;97.20;;;;;;4954349;28;20097;-69
2023/02/20 09:33:59;;;;;;;11.57;5.10;;;10.30;97.20;;;;;;4972033;28;20014;-70
2023/02/20 09:36:26;;;;;;;6.53;4.50;;;10.30;97.10;;;;;;4971933;28;20478;-70
2023/02/20 09:38:51;;;;;;;6.38;4.13;;;10.40;97.10;;;;;;4954866;28;20406;-69
2023/02/20 09:41:54;;;;;;;6.88;3.47;;;10.40;97.00;;;;;;4960235;28;20078;-74
2023/02/20 09:44:26;;;;;;;7.53;4.40;;;10.50;97.10;;;;;;4968572;28;20386;-70
2023/02/20 09:46:55;;;;;;;8.50;3.80;;;10.60;97.00;;;;;;4971102;28;20082;-71
2023/02/20 09:49:25;;;;;;;7.72;4.28;;;10.60;97.00;;;;;;4971178;28;20309;-71
2023/02/20 09:51:58;;;;;;;5.16;3.90;;;10.70;96.80;;;;;;4971138;28;1087213;-69
2023/02/20 09:54:26;;;;;;;5.63;4.07;;;10.80;96.70;;;;;;4968576;28;20058;-69
2023/02/20 09:56:59;;;;;;;11.18;4.22;;;10.80;96.60;;;;;;4963794;28;20051;-69
2023/02/20 09:59:45;;;;;;;7.43;4.75;;;10.80;96.50;;;;;;4964106;28;20031;-70
2023/02/20 10:02:16;;;;;;;9.20;3.78;;;10.90;96.40;;;;;;4962586;28;20338;-71
2023/02/20 10:04:47;;;;;;;6.65;4.05;;;10.90;96.50;;;;;;4960165;28;20422;-70
2023/02/20 10:07:40;;;;;;;7.70;3.97;;;10.90;96.40;;;;;;4953379;28;20035;-71
2023/02/20 10:10:23;;;;;;;5.32;3.38;;;11.00;96.40;;;;;;4964306;28;20158;-73
2023/02/20 10:13:14;;;;;;;8.70;3.50;;;11.10;96.20;;;;;;4969641;28;20050;-71
2023/02/20 10:15:58;;;;;;;7.38;3.65;;;11.20;96.20;;;;;;4956552;28;20031;-71
2023/02/20 10:18:36;;;;;;;8.20;4.88;;;11.20;96.10;;;;;;4952538;28;20418;-71
2023/02/20 10:21:13;;;;;;;8.25;4.40;;;11.20;95.90;;;;;;4956084;28;20023;-70
2023/02/20 10:23:50;;;;;;;6.22;3.70;;;11.20;95.70;;;;;;4958840;28;20395;-70
2023/02/20 10:26:27;;;;;;;6.65;4.35;;;11.30;95.80;;;;;;4963843;28;20031;-70
2023/02/20 10:28:54;;;;;;;8.60;3.60;;;11.30;95.80;;;;;;4957691;28;20031;-70
2023/02/20 10:31:34;;;;;;;6.95;4.15;;;11.40;95.60;;;;;;4953532;28;20031;-70
2023/02/20 10:34:11;;;;;;;5.72;3.45;;;11.40;95.40;;;;;;4953257;28;20041;-71
2023/02/20 10:36:55;;;;;;;10.25;4.05;;;11.40;95.40;;;;;;4946072;28;20375;-70
2023/02/20 10:39:22;;;;;;;6.93;4.65;;;11.50;95.50;;;;;;4952572;28;20122;-70
2023/02/20 10:42:01;;;;;;;9.10;4.00;;;11.50;95.50;;;;;;4956924;28;20486;-71
2023/02/20 10:44:37;;;;;;;6.47;3.83;;;11.50;95.40;;;;;;4953971;28;20360;-70
2023/02/20 10:47:15;;;;;;;6.10;3.72;;;11.60;95.30;;;;;;4971077;28;20034;-70
2023/02/20 10:49:59;;;;;;;5.40;3.63;;;11.60;95.20;;;;;;4955279;28;20030;-70
2023/02/20 10:52:50;;;;;;;6.00;3.60;;;11.60;95.10;;;;;;4965158;28;20126;-70
2023/02/20 10:55:29;;;;;;;7.85;4.68;;;11.70;94.90;;;;;;4949053;28;20390;-71
2023/02/20 10:58:24;;;;;;;6.13;3.50;;;11.60;95.00;;;;;;4965520;28;20524;-71
2023/02/20 11:00:53;;;;;;;;;;;11.70;95.10;;;;;;4956870;28;20041;-71
2023/02/20 11:03:48;;;;;;;8.73;3.75;;;11.70;95.30;;;;;;4958034;28;19914;-71
2023/02/20 11:06:18;;;;;;;5.80;4.07;;;11.70;95.30;;;;;;4940616;28;20036;-70
2023/02/20 11:08:45;;;;;;;6.57;3.95;;;11.70;95.20;;;;;;4970495;28;20055;-70
2023/02/20 11:11:21;;;;;;;7.78;3.88;;;11.80;95.10;;;;;;4960853;28;20046;-69
2023/02/20 11:13:47;;;;;;;6.82;3.92;;;11.90;95.10;;;;;;4953498;28;20074;-70
2023/02/20 11:16:26;;;;;;;5.60;3.65;;;11.90;95.10;;;;;;4970839;28;20054;-70
2023/02/20 11:19:20;;;;;;;6.07;4.35;;;11.90;95.10;;;;;;4949724;28;20043;-70
2023/02/20 11:21:48;;;;;;;6.93;3.58;;;11.90;95.10;;;;;;4963452;28;20038;-70
2023/02/20 11:24:30;;;;;;;6.00;4.00;;;11.90;95.10;;;;;;4969599;28;20037;-69
2023/02/20 11:27:09;;;;;;;5.88;4.18;;;11.90;95.10;;;;;;4975063;28;20022;-70
2023/02/20 11:30:20;;;;;;;6.40;4.03;;;12.00;95.10;;;;;;4964348;28;20035;-69
2023/02/20 11:32:48;;;;;;;5.88;4.18;;;12.00;95.20;;;;;;4946765;28;20121;-69
2023/02/20 11:35:16;;;;;;;6.85;4.35;;;12.00;95.20;;;;;;4974430;28;20035;-68
2023/02/20 11:38:03;;;;;;;6.88;4.22;;;12.00;95.20;;;;;;4957273;28;20129;-69
2023/02/20 11:40:32;;;;;;;6.32;4.18;;;12.00;95.20;;;;;;4946013;28;20283;-71
2023/02/20 11:43:13;;;;;;;6.50;3.55;;;12.00;95.20;;;;;;4957424;28;20031;-69
2023/02/20 11:45:39;;;;;;;7.53;4.68;;;12.10;95.20;;;;;;4974429;28;20031;-69
2023/02/20 11:48:18;;;;;;;8.00;4.60;;;12.10;95.30;;;;;;4966642;28;20031;-69
2023/02/20 11:50:47;;;;;;;5.05;3.60;;;12.10;95.50;;;;;;4971771;28;20057;-70
2023/02/20 11:53:22;;;;;;;6.85;4.07;;;12.10;95.20;;;;;;4955359;28;20141;-69
2023/02/20 11:56:04;;;;;;;6.97;4.78;;;12.10;95.40;;;;;;4973503;28;20486;-70
2023/02/20 11:58:30;;;;;;;8.88;4.40;;;12.10;95.30;;;;;;4966133;28;20044;-67
2023/02/20 12:00:56;;;;;;;6.53;4.45;;;12.10;95.30;;;;;;4958022;28;20031;-69
2023/02/20 12:03:27;;;;;;;6.28;3.85;;;12.10;95.30;;;;;;4959808;28;20074;-68
2023/02/20 12:05:53;;;;;;;6.43;3.90;;;12.10;95.50;;;;;;4974845;28;20409;-70
2023/02/20 12:08:39;;;;;;;6.38;4.20;;;12.10;95.50;;;;;;4964435;28;20112;-68
2023/02/20 12:11:16;;;;;;;10.20;6.00;;;12.10;95.60;;;;;;4955380;28;20035;-70
2023/02/20 12:13:48;;;;;;;6.85;4.25;;;12.10;95.80;;;;;;4963807;28;20050;-69
2023/02/20 12:16:34;;;;;;;6.85;4.10;;;12.10;95.70;;;;;;4960946;28;20031;-69
2023/02/20 12:19:27;;;;;;;6.43;4.10;;;12.10;95.70;;;;;;4946438;28;20070;-70
2023/02/20 12:22:18;;;;;;;5.65;4.60;;;12.20;95.80;;;;;;4960990;28;20113;-70
2023/02/20 12:25:19;;;;;;;6.88;4.68;;;12.20;95.80;;;;;;4954310;28;20031;-70
2023/02/20 12:27:57;;;;;;;7.15;5.07;;;12.20;95.90;;;;;;4932246;28;20077;-70
2023/02/20 12:30:43;;;;;;;8.32;5.47;;;12.20;95.80;;;;;;4960408;28;20032;-70
2023/02/20 12:33:24;;;;;;;8.40;4.78;;;12.20;95.90;;;;;;4961654;28;20121;-69
2023/02/20 12:35:56;;;;;;;6.63;4.80;;;12.20;96.00;;;;;;4965742;28;20030;-71
2023/02/20 12:38:34;;;;;;;8.35;5.00;;;12.10;96.00;;;;;;4960945;28;20085;-69
2023/02/20 12:41:19;;;;;;;8.57;5.22;;;12.10;96.00;;;;;;4966083;28;20035;-69
2023/02/20 12:44:06;;;;;;;6.77;4.63;;;12.20;96.00;;;;;;4954693;28;20078;-68
2023/02/20 12:46:51;;;;;;;9.07;6.15;;;12.20;96.10;;;;;;4943299;28;20038;-69
2023/02/20 12:49:16;;;;;;;10.13;5.70;;;12.10;96.20;;;;;;4964633;28;20062;-69
2023/02/20 12:51:53;;;;;;;8.63;5.30;;;12.10;96.30;;;;;;4962491;28;20027;-69
2023/02/20 12:54:43;;;;;;;9.18;6.22;;;12.10;96.30;;;;;;4959254;28;20057;-69
2023/02/20 12:57:22;;;;;;;9.50;6.38;;;12.10;96.60;;;;;;4963971;28;20082;-69
2023/02/20 13:00:01;;;;;;;9.50;6.60;;;12.10;96.50;;;;;;4956235;28;20031;-69
2023/02/20 13:02:37;;;;;;;9.52;6.63;;;12.00;96.60;;;;;;4953923;28;20136;-70
2023/02/20 13:05:05;;;;;;;12.18;7.18;;;12.00;96.80;;;;;;4954113;28;20360;-69
2023/02/20 13:07:44;;;;;;;12.43;7.43;;;11.90;97.00;;;;;;4953887;28;20031;-68
2023/02/20 13:10:24;;;;;;;11.05;6.70;;;11.90;97.00;;;;;;4956825;28;20069;-69
2023/02/20 13:12:50;;;;;;;10.48;7.53;;;11.90;97.10;;;;;;4964455;28;20027;-67
2023/02/20 13:15:29;;;;;;;10.65;7.18;;;11.80;97.40;;;;;;4961438;28;20035;-68
2023/02/20 13:18:22;;;;;;;11.75;7.80;;;11.80;97.50;;;;;;4953563;28;20062;-69
2023/02/20 13:20:57;;;;;;;13.35;8.13;;;11.70;97.50;;;;;;4959616;28;20050;-69
2023/02/20 13:23:22;;;;;;;10.95;8.10;;;11.80;97.60;;;;;;4963994;28;20490;-69
2023/02/20 13:25:49;;;;;;;11.18;8.20;;;11.70;97.60;;;;;;4953939;28;20031;-70
2023/02/20 13:28:41;;;;;;;11.27;8.27;;;11.80;97.70;;;;;;4958432;28;20038;-70